Latest Weather Observations for Normanton

IDQ60801

Issued at 4:35 pm EST Thursday 28 August 2014 (issued every 30 minutes, with the page automatically refreshed every 10 minutes)

About weather observations | Map of weather stations | Latest weather observations for QLD | Other Formats
Station Details ID: 029063 Name: NORMANTON AIRPORT Lat: -17.69 Lon: 141.07 Height: 18.42 m
Data from the previous 72 hours. | See also: Recent months at Normanton
Date/Time
EST
Temp
°C
App
Temp
°C
Dew
Point
Rel
Hum
%
Delta-T
°C
Wind Press
QNH
hPa
Press
MSL
hPa
Rain
since 9 am
mm
Dir
 
Spd
km/h
Gust
km/h
Spd
kts
Gust
kts
28/04:30pm 30.1 24.1 -6.2 9 15.6 S 17 24 9 13 1013.8 - 0.0
28/04:00pm 29.7 24.1 -6.5 9 15.4 S 15 30 8 16 1013.9 - 0.0
28/03:30pm 30.5 24.9 -5.9 9 15.8 S 15 24 8 13 1014.1 - 0.0
28/03:00pm 29.8 24.6 -6.4 9 15.4 S 13 24 7 13 1014.4 1014.3 0.0
28/02:30pm 29.0 22.7 -5.7 10 14.9 S 19 24 10 13 1014.7 - 0.0
28/02:00pm 29.4 24.7 -5.4 10 15.1 S 11 24 6 13 1015.0 - 0.0
28/01:30pm 28.6 23.0 -6.0 10 14.7 SSE 15 32 8 17 1015.7 - 0.0
28/01:00pm 28.8 23.8 -4.6 11 14.6 SE 13 28 7 15 1016.1 - 0.0
28/12:30pm 28.2 22.7 -5.0 11 14.3 E 15 22 8 12 1016.6 - 0.0
28/12:00pm 27.6 22.6 -4.3 12 13.8 E 13 26 7 14 1017.1 1017.0 0.0
28/11:30am 26.6 20.4 -5.1 12 13.5 ESE 19 30 10 16 1017.6 - 0.0
28/11:00am 25.9 20.5 -4.6 13 13.0 SE 15 28 8 15 1017.7 - 0.0
28/10:30am 25.4 19.1 -4.0 14 12.6 ESE 20 30 11 16 1018.1 - 0.0
28/10:00am 25.2 19.3 -2.4 16 12.2 ESE 19 32 10 17 1018.4 - 0.0
28/09:30am 23.8 17.8 -1.9 18 11.3 SE 20 32 11 17 1018.4 - 0.0
28/09:00am 21.8 16.0 -1.5 21 10.1 SE 19 30 10 16 1018.4 1018.3 0.0
28/08:30am 19.8 15.1 -1.9 23 9.2 SE 13 22 7 12 1018.3 - 0.0
28/08:00am 17.5 12.4 -1.7 27 8.0 SSE 15 19 8 10 1018.2 - 0.0
28/07:30am 15.4 9.8 -2.5 29 7.2 SSE 17 19 9 10 1017.8 - 0.0
28/07:00am 14.7 9.5 -2.7 30 6.9 SSE 15 20 8 11 1017.5 - 0.0
28/06:30am 14.7 9.5 -3.1 29 7.0 SSE 15 20 8 11 1017.0 - 0.0
28/06:00am 15.5 9.9 -2.9 28 7.3 S 17 20 9 11 1016.6 1016.5 0.0
28/05:30am 15.2 10.0 -2.7 29 7.1 S 15 17 8 9 1016.3 - 0.0
28/05:00am 15.8 11.0 -2.6 28 7.4 SSE 13 15 7 8 1016.2 - 0.0
28/04:30am 16.3 11.0 -3.2 26 7.8 SSE 15 17 8 9 1015.9 - 0.0
28/04:00am 17.2 11.1 -3.5 24 8.3 S 19 20 10 11 1015.7 - 0.0
28/03:30am 18.0 12.3 -3.4 23 8.7 SSE 17 22 9 12 1015.7 - 0.0
28/03:00am 18.7 12.5 -3.4 22 9.0 SSE 20 24 11 13 1015.5 1015.4 0.0
28/02:30am 19.0 12.7 -3.8 21 9.2 S 20 26 11 14 1015.8 - 0.0
28/02:00am 19.1 12.9 -4.4 20 9.4 S 19 24 10 13 1016.1 - 0.0
28/01:30am 19.4 13.0 -4.8 19 9.6 S 20 28 11 15 1016.0 - 0.0
28/01:00am 19.7 12.9 -5.3 18 9.9 S 22 28 12 15 1016.1 - 0.0
28/12:30am 20.6 13.7 -6.1 16 10.5 S 22 28 12 15 1016.2 - 0.0
28/12:00am 21.2 14.3 -6.4 15 10.8 S 22 28 12 15 1016.3 1016.2 0.0
 
Date/Time
EST
Temp
°C
App
Temp
°C
Dew
Point
Rel
Hum
%
Delta-T
°C
Wind Press
QNH
hPa
Press
MSL
hPa
Rain
since 9 am
mm
Dir
 
Spd
km/h
Gust
km/h
Spd
kts
Gust
kts
27/11:30pm 21.6 14.2 -7.0 14 11.2 S 24 32 13 17 1016.3 - 0.0
27/11:00pm 21.1 14.6 -7.4 14 11.0 S 19 24 10 13 1016.3 - 0.0
27/10:30pm 20.7 14.6 -7.7 14 10.8 S 17 22 9 12 1016.3 - 0.0
27/10:00pm 21.4 14.7 -8.1 13 11.2 S 20 24 11 13 1016.2 - 0.0
27/09:30pm 21.3 14.8 -8.2 13 11.2 S 19 22 10 12 1016.2 - 0.0
27/09:00pm 22.1 15.9 -8.6 12 11.7 S 17 20 9 11 1016.1 1016.0 0.0
27/08:30pm 22.3 16.5 -8.4 12 11.7 SSW 15 19 8 10 1015.8 - 0.0
27/08:00pm 22.2 16.9 -7.5 13 11.5 SSW 13 15 7 8 1015.4 - 0.0
27/07:30pm 22.8 18.0 -6.1 14 11.6 SSW 11 13 6 7 1015.0 - 0.0
27/07:00pm 24.5 19.6 -6.7 12 12.6 S 11 13 6 7 1014.7 - 0.0
27/06:30pm 26.8 21.5 -7.3 10 13.9 S 13 17 7 9 1014.5 - 0.0
27/06:00pm 28.7 22.1 -7.3 9 15.0 S 20 26 11 14 1013.9 1013.8 0.0
27/05:30pm 29.4 22.3 -8.2 8 15.5 S 22 28 12 15 1013.9 - 0.0
27/05:00pm 30.1 23.6 -6.2 9 15.6 S 20 32 11 17 1013.8 - 0.0
27/04:30pm 30.2 24.3 -6.1 9 15.6 S 17 35 9 19 1013.7 - 0.0
27/04:00pm 30.0 23.7 -6.3 9 15.5 S 19 26 10 14 1013.6 - 0.0
27/03:30pm 30.4 25.0 -4.6 10 15.5 S 15 30 8 16 1013.7 - 0.0
27/03:00pm 30.3 24.5 -4.7 10 15.4 SSE 17 32 9 17 1013.9 1013.8 0.0
27/02:30pm 30.0 24.6 -4.9 10 15.3 S 15 28 8 15 1014.2 - 0.0
27/02:00pm 29.6 23.4 -5.2 10 15.1 SSW 19 33 10 18 1014.5 - 0.0
27/01:30pm 29.7 22.9 -5.1 10 15.2 S 22 35 12 19 1014.9 - 0.0
27/01:00pm 28.2 22.4 -5.0 11 14.3 S 17 26 9 14 1015.3 - 0.0
27/12:30pm 28.0 22.1 -5.2 11 14.2 SSE 17 28 9 15 1015.9 - 0.0
27/12:00pm 27.8 20.6 -5.3 11 14.1 SSE 24 30 13 16 1016.3 1016.2 0.0
27/11:30am 26.9 20.7 -4.9 12 13.6 SE 19 30 10 16 1017.0 - 0.0
27/11:00am 26.5 20.1 -5.2 12 13.4 SSE 20 30 11 16 1017.5 - 0.0
27/10:30am 26.1 19.9 -4.4 13 13.1 SSE 19 30 10 16 1017.9 - 0.0
27/10:00am 24.5 18.1 -4.7 14 12.3 SSE 20 32 11 17 1018.2 - 0.0
27/09:30am 23.3 16.4 -5.7 14 11.8 SSE 22 35 12 19 1018.1 - 0.0
27/09:00am 21.8 14.6 -5.1 16 10.9 SSE 24 32 13 17 1017.9 1017.8 0.0
27/08:30am 20.4 13.3 -4.7 18 10.1 SSE 24 33 13 18 1017.8 - 0.0
27/08:00am 18.7 11.6 -4.0 21 9.1 S 24 35 13 19 1017.7 - 0.0
27/07:30am 17.6 10.1 -4.3 22 8.7 S 26 32 14 17 1017.4 - 0.0
27/07:00am 17.5 10.4 -4.4 22 8.6 S 24 33 13 18 1016.9 - 0.0
27/06:30am 17.6 11.0 -3.7 23 8.5 S 22 28 12 15 1016.4 - 0.0
27/06:00am 17.6 11.0 -3.7 23 8.5 S 22 28 12 15 1016.0 1016.0 0.0
27/05:30am 18.0 11.8 -3.4 23 8.7 S 20 26 11 14 1015.8 - 0.0
27/05:00am 18.0 12.4 -2.8 24 8.5 S 17 22 9 12 1015.5 - 0.0
27/04:30am 19.0 12.9 -2.6 23 9.0 S 20 24 11 13 1015.3 - 0.0
27/04:00am 19.5 13.6 -2.2 23 9.1 S 19 22 10 12 1015.2 - 0.0
27/03:30am 19.8 13.9 -1.9 23 9.2 S 19 22 10 12 1015.1 - 0.0
27/03:00am 20.5 14.5 -1.9 22 9.6 S 20 26 11 14 1015.0 1014.9 0.0
27/02:30am 20.8 15.4 -1.1 23 9.5 SSE 17 22 9 12 1015.2 - 0.0
27/02:00am 19.4 14.4 -1.1 25 8.8 S 15 17 8 9 1015.3 - 0.0
27/01:30am 20.4 15.5 -0.8 24 9.2 S 15 19 8 10 1015.3 - 0.0
27/01:00am 21.0 15.7 -0.9 23 9.6 S 17 20 9 11 1015.3 - 0.0
27/12:30am 22.0 16.3 -0.7 22 10.1 S 19 28 10 15 1015.5 - 0.0
27/12:00am 22.2 16.3 -0.5 22 10.1 S 20 26 11 14 1015.6 1015.5 0.0
 
Date/Time
EST
Temp
°C
App
Temp
°C
Dew
Point
Rel
Hum
%
Delta-T
°C
Wind Press
QNH
hPa
Press
MSL
hPa
Rain
since 9 am
mm
Dir
 
Spd
km/h
Gust
km/h
Spd
kts
Gust
kts
26/11:30pm 21.7 16.7 -0.9 22 10.0 S 15 20 8 11 1015.6 - 0.0
26/11:00pm 22.1 16.7 -1.2 21 10.2 S 17 22 9 12 1015.5 - 0.0
26/10:30pm 21.5 16.5 -1.1 22 9.9 S 15 19 8 10 1015.5 - 0.0
26/10:00pm 21.8 16.8 -1.5 21 10.1 S 15 17 8 9 1015.4 - 0.0
26/09:30pm 22.7 17.6 -2.1 19 10.8 S 15 19 8 10 1015.3 - 0.0
26/09:00pm 22.9 18.2 -1.9 19 10.8 S 13 17 7 9 1015.0 1014.9 0.0
26/08:30pm 24.7 19.2 -2.0 17 11.8 S 17 20 9 11 1014.7 - 0.0
26/08:00pm 23.6 19.3 -1.3 19 11.1 S 11 13 6 7 1014.4 - 0.0
26/07:30pm 24.8 20.6 -1.1 18 11.7 S 11 13 6 7 1014.0 - 0.0
26/07:00pm 26.2 21.9 -1.6 16 12.5 S 11 13 6 7 1013.7 - 0.0
26/06:30pm 28.0 22.1 -2.0 14 13.6 S 19 26 10 14 1013.2 - 0.0
26/06:00pm 29.6 23.6 -1.7 13 14.5 SSE 20 28 11 15 1012.8 1012.7 0.0
26/05:30pm 30.3 24.3 -1.2 13 14.8 S 20 28 11 15 1012.7 - 0.0
26/05:00pm 30.6 24.3 -0.9 13 14.9 S 22 35 12 19 1012.6 - 0.0
26/04:30pm 30.7 25.1 1.1 15 14.5 SSE 20 32 11 17 1012.6 - 0.0
26/04:00pm 31.0 25.1 1.4 15 14.6 SSE 22 32 12 17 1012.7 - 0.0
26/03:30pm 30.8 23.3 1.2 15 14.5 S 30 52 16 28 1012.9 - 0.0
26/03:27pm 31.0 23.9 1.4 15 14.6 S 28 52 15 28 1012.9 - 0.0
26/03:00pm 31.1 25.7 2.3 16 14.4 SSE 20 32 11 17 1013.1 1013.1 0.0
26/02:30pm 30.7 25.4 2.9 17 14.0 SSE 20 37 11 20 1013.4 - 0.0
26/02:00pm 29.8 24.6 3.7 19 13.3 SSE 20 39 11 21 1013.9 - 0.0
26/01:30pm 29.7 23.4 3.6 19 13.2 SSE 26 35 14 19 1014.4 - 0.0
26/01:00pm 29.3 25.3 4.7 21 12.7 E 15 32 8 17 1014.8 - 0.0
26/12:30pm 29.4 24.8 5.5 22 12.5 SE 19 30 10 16 1015.4 - 0.0
26/12:00pm 28.4 23.9 5.9 24 11.8 SE 19 33 10 18 1016.0 1015.9 0.0
26/11:30am 28.1 23.6 6.2 25 11.5 ESE 19 35 10 19 1016.7 - 0.0
26/11:00am 27.7 23.3 6.5 26 11.2 ESE 19 28 10 15 1017.2 - 0.0
26/10:30am 27.7 24.2 7.0 27 11.0 ESE 15 30 8 16 1017.5 - 0.0
26/10:00am 26.3 22.7 6.9 29 10.2 SE 15 24 8 13 1017.8 - 0.0
26/09:30am 25.5 22.3 6.7 30 9.8 SSE 13 20 7 11 1017.8 - 0.0
26/09:00am 23.8 20.0 5.7 31 9.2 SE 15 20 8 11 1017.8 1017.7 0.0
26/08:30am 22.4 18.1 5.4 33 8.5 SSE 17 24 9 13 1017.8 - 0.0
26/08:00am 20.9 17.0 5.3 36 7.7 SSE 15 20 8 11 1017.5 - 0.0
26/07:30am 19.1 15.3 5.6 41 6.6 SSE 15 19 8 10 1017.2 - 0.0
26/07:00am 18.3 14.7 5.2 42 6.3 S 13 17 7 9 1016.9 - 0.0
26/06:30am 18.9 15.4 5.4 41 6.6 SSE 13 17 7 9 1016.4 - 0.0
26/06:00am 18.8 15.3 5.3 41 6.6 SSE 13 15 7 8 1016.0 1015.8 0.0
26/05:30am 19.4 15.9 5.5 40 6.8 SSE 13 17 7 9 1015.6 - 0.0
26/05:00am 19.6 15.7 5.3 39 7.0 S 15 17 8 9 1015.5 - 0.0
26/04:30am 20.2 15.9 5.4 38 7.3 S 17 20 9 11 1015.3 - 0.0
26/04:00am 20.2 16.7 5.4 38 7.3 S 13 17 7 9 1015.2 - 0.0
26/03:30am 21.0 17.5 5.4 36 7.7 SSE 13 17 7 9 1015.2 - 0.0
26/03:00am 21.8 17.5 5.3 34 8.2 SSE 17 20 9 11 1015.0 1014.9 0.0
26/02:30am 22.2 17.5 5.2 33 8.5 SSE 19 24 10 13 1015.1 - 0.0
26/02:00am 22.4 17.6 5.4 33 8.5 S 20 24 11 13 1015.1 - 0.0
26/01:30am 22.5 17.6 5.0 32 8.7 S 20 26 11 14 1015.1 - 0.0
26/01:00am 22.4 17.5 4.9 32 8.7 S 20 28 11 15 1015.2 - 0.0
26/12:30am 21.7 17.6 4.3 32 8.5 S 15 17 8 9 1015.2 - 0.0
26/12:00am 22.5 17.6 4.1 30 9.0 S 19 20 10 11 1015.3 1015.2 0.0
 
Date/Time
EST
Temp
°C
App
Temp
°C
Dew
Point
Rel
Hum
%
Delta-T
°C
Wind Press
QNH
hPa
Press
MSL
hPa
Rain
since 9 am
mm
Dir
 
Spd
km/h
Gust
km/h
Spd
kts
Gust
kts
25/11:30pm 22.9 18.4 4.4 30 9.1 S 17 20 9 11 1015.5 - 0.0
25/11:00pm 23.1 18.6 4.1 29 9.3 S 17 20 9 11 1015.6 - 0.0
25/10:30pm 22.9 18.8 4.4 30 9.1 S 15 20 8 11 1015.5 - 0.0
25/10:00pm 23.0 18.9 4.5 30 9.1 S 15 19 8 10 1015.4 - 0.0
25/09:30pm 22.8 19.1 4.3 30 9.1 S 13 15 7 8 1015.4 - 0.0
25/09:00pm 22.8 19.5 4.3 30 9.1 SSW 11 13 6 7 1015.4 1015.3 0.0
25/08:30pm 23.7 20.3 4.1 28 9.6 S 11 13 6 7 1015.4 - 0.0
25/08:00pm 24.1 20.6 3.4 26 10.1 S 11 13 6 7 1015.0 - 0.0
25/07:30pm 25.6 22.1 3.5 24 10.9 S 11 13 6 7 1014.7 - 0.0
25/07:00pm 27.1 23.2 3.6 22 11.7 S 13 17 7 9 1014.3 - 0.0
25/06:30pm 28.5 23.8 3.4 20 12.6 S 17 22 9 12 1014.0 - 0.0
25/06:00pm 29.8 25.4 2.9 18 13.5 SSE 15 20 8 11 1013.8 1013.7 0.0
25/05:30pm 30.4 25.6 2.6 17 13.9 SSE 17 24 9 13 1013.6 - 0.0
25/05:00pm 31.0 25.9 3.1 17 14.1 S 19 32 10 17 1013.5 - 0.0

Other Formats:

Comma delimited format used in spreadsheet applications
http://www.bom.gov.au/fwo/IDQ60801/IDQ60801.94266.axf

JavaScript Object Notation format (JSON) in row-major order
http://www.bom.gov.au/fwo/IDQ60801/IDQ60801.94266.json